Time;durP1;ratioP1;P1;durP2;ratioP2;P2;SDS_P1;SDS_P2;PMS_P1;PMS_P2;Temp;Humidity;BMP_temperature;BMP_pressure;BME280_temperature;BME280_humidity;BME280_pressure;Samples;Min_cycle;Max_cycle;Signal;HPM_P1;HPM_P2
2021/06/17 00:00:23;;;;;;;4.68;2.17;;;25.60;48.10;;;;;;5004094;28;20038;-49
2021/06/17 00:02:49;;;;;;;3.13;2.08;;;25.60;48.00;;;;;;5012281;28;20026;-50
2021/06/17 00:05:17;;;;;;;2.90;2.13;;;25.60;47.90;;;;;;5004255;28;20082;-52
2021/06/17 00:07:43;;;;;;;3.00;2.40;;;25.60;48.00;;;;;;5007984;28;20041;-50
2021/06/17 00:10:22;;;;;;;4.30;2.28;;;25.60;48.00;;;;;;5003002;28;20026;-51
2021/06/17 00:12:48;;;;;;;3.25;2.60;;;25.60;48.20;;;;;;5006858;28;20402;-46
2021/06/17 00:15:15;;;;;;;4.15;2.10;;;25.60;48.10;;;;;;5007521;28;20025;-51
2021/06/17 00:17:43;;;;;;;3.67;2.10;;;25.50;48.10;;;;;;5006510;28;20503;-54
2021/06/17 00:20:09;;;;;;;5.75;1.98;;;25.60;48.10;;;;;;5009221;28;20045;-47
2021/06/17 00:22:35;;;;;;;4.38;1.95;;;25.50;47.80;;;;;;5012966;28;20037;-51
2021/06/17 00:25:00;;;;;;;2.60;2.30;;;25.60;47.90;;;;;;5012297;28;20358;-54
2021/06/17 00:27:27;;;;;;;2.97;2.15;;;25.50;47.90;;;;;;5013012;28;20033;-54
2021/06/17 00:29:53;;;;;;;4.05;2.33;;;25.50;48.00;;;;;;5011864;28;20034;-54
2021/06/17 00:32:18;;;;;;;3.08;2.47;;;25.50;48.00;;;;;;5012183;28;20030;-52
2021/06/17 00:34:44;;;;;;;3.28;2.20;;;25.50;48.10;;;;;;5012511;28;20046;-50
2021/06/17 00:37:10;;;;;;;4.13;2.28;;;25.50;48.20;;;;;;5012279;28;20061;-54
2021/06/17 00:39:37;;;;;;;2.95;2.00;;;25.50;48.30;;;;;;5012392;28;20054;-52
2021/06/17 00:42:04;;;;;;;2.90;2.40;;;25.50;48.40;;;;;;5010016;28;20034;-52
2021/06/17 00:44:29;;;;;;;4.40;2.25;;;25.50;48.50;;;;;;5012677;28;20109;-52
2021/06/17 00:46:55;;;;;;;3.33;2.50;;;25.50;48.50;;;;;;5011693;28;20030;-52
2021/06/17 00:49:20;;;;;;;6.15;2.10;;;25.50;48.50;;;;;;5012451;28;20072;-51
2021/06/17 00:51:46;;;;;;;2.95;2.15;;;25.50;48.50;;;;;;5011929;28;20053;-44
2021/06/17 00:54:12;;;;;;;4.82;2.20;;;25.50;48.50;;;;;;5011591;28;20379;-50
2021/06/17 00:56:37;;;;;;;4.00;2.15;;;25.50;48.50;;;;;;5012416;28;20049;-50
2021/06/17 00:59:04;;;;;;;3.35;2.42;;;25.50;48.60;;;;;;5011607;28;20406;-50
2021/06/17 01:01:29;;;;;;;5.03;2.60;;;25.50;48.50;;;;;;5012788;28;20037;-52
2021/06/17 01:03:55;;;;;;;3.05;2.03;;;25.40;48.60;;;;;;5012171;28;20026;-49
2021/06/17 01:06:21;;;;;;;3.33;2.05;;;25.50;48.90;;;;;;5011780;28;20467;-52
2021/06/17 01:09:04;;;;;;;3.95;1.95;;;25.40;48.60;;;;;;5011954;28;20040;-47
2021/06/17 01:11:42;;;;;;;3.83;2.53;;;25.40;48.60;;;;;;5011874;28;20104;-54
2021/06/17 01:14:13;;;;;;;7.00;2.63;;;25.40;48.70;;;;;;5011433;28;20221;-55
2021/06/17 01:16:42;;;;;;;6.55;3.17;;;25.40;48.80;;;;;;5011901;28;20071;-48
2021/06/17 01:19:34;;;;;;;2.80;2.30;;;25.40;48.80;;;;;;5004514;28;20029;-53
2021/06/17 01:22:29;;;;;;;3.03;2.38;;;25.40;48.90;;;;;;5011151;28;20037;-51
2021/06/17 01:25:10;;;;;;;4.10;2.22;;;25.40;49.00;;;;;;5011188;28;20484;-50
2021/06/17 01:27:57;;;;;;;3.55;2.40;;;25.40;49.10;;;;;;5011920;28;20026;-53
2021/06/17 01:30:25;;;;;;;2.40;2.20;;;25.40;49.20;;;;;;5011521;28;20030;-51
2021/06/17 01:32:57;;;;;;;3.15;2.30;;;25.40;49.30;;;;;;5011422;28;20025;-47
2021/06/17 01:35:26;;;;;;;5.35;2.53;;;25.40;49.30;;;;;;5011928;28;20353;-52
2021/06/17 01:37:56;;;;;;;4.45;2.42;;;25.30;49.30;;;;;;5010073;28;20058;-53
2021/06/17 01:40:25;;;;;;;3.10;2.42;;;25.40;49.50;;;;;;5010203;28;20022;-52
2021/06/17 01:42:51;;;;;;;3.78;2.45;;;25.30;49.40;;;;;;5009878;28;20034;-47
2021/06/17 01:45:18;;;;;;;7.05;2.72;;;25.30;49.50;;;;;;5011503;28;20048;-51
2021/06/17 01:47:46;;;;;;;4.07;2.15;;;25.30;49.50;;;;;;5011510;28;20026;-48
2021/06/17 01:50:14;;;;;;;3.53;2.42;;;25.30;49.50;;;;;;5003640;28;20038;-53
2021/06/17 01:52:41;;;;;;;6.63;2.90;;;25.30;49.60;;;;;;5011596;28;20125;-51
2021/06/17 01:55:09;;;;;;;3.63;2.40;;;25.30;49.60;;;;;;5010810;28;20045;-53
2021/06/17 01:57:35;;;;;;;2.80;2.17;;;25.30;49.70;;;;;;5011835;28;20041;-53
2021/06/17 02:00:03;;;;;;;5.70;3.22;;;25.30;49.60;;;;;;5010756;28;20026;-53
2021/06/17 02:02:30;;;;;;;4.05;2.40;;;25.30;49.60;;;;;;5011423;28;20471;-55
2021/06/17 02:04:57;;;;;;;5.68;2.15;;;25.30;49.50;;;;;;5010615;28;20018;-54
2021/06/17 02:07:25;;;;;;;2.75;2.38;;;25.30;49.50;;;;;;5038761;28;20030;-53
2021/06/17 02:09:52;;;;;;;2.42;2.22;;;25.30;49.30;;;;;;5010897;28;20059;-46
2021/06/17 02:12:19;;;;;;;4.75;2.85;;;25.20;49.30;;;;;;5011267;28;20022;-54
2021/06/17 02:14:47;;;;;;;5.65;2.40;;;25.20;49.20;;;;;;5011287;28;20042;-52
2021/06/17 02:17:15;;;;;;;5.95;2.58;;;25.20;49.10;;;;;;5010485;28;20037;-52
2021/06/17 02:19:41;;;;;;;2.95;2.28;;;25.20;49.10;;;;;;5010710;28;20443;-54
2021/06/17 02:22:09;;;;;;;2.83;2.17;;;25.20;49.10;;;;;;5010140;28;20471;-53
2021/06/17 02:24:38;;;;;;;3.30;2.20;;;25.20;49.10;;;;;;5010994;28;20164;-53
2021/06/17 02:27:11;;;;;;;6.22;2.30;;;25.20;49.00;;;;;;5010744;28;20021;-54
2021/06/17 02:29:46;;;;;;;4.18;2.17;;;25.20;49.00;;;;;;5011471;28;20484;-53
2021/06/17 02:32:19;;;;;;;4.32;2.55;;;25.10;49.00;;;;;;5010278;28;20482;-51
2021/06/17 02:34:47;;;;;;;3.60;2.10;;;25.10;48.80;;;;;;5011442;28;20091;-54
2021/06/17 02:37:15;;;;;;;2.72;1.88;;;25.10;49.60;;;;;;5010556;28;20162;-50
2021/06/17 02:39:42;;;;;;;3.53;2.03;;;25.10;48.90;;;;;;5010940;28;20519;-54
2021/06/17 02:42:12;;;;;;;3.08;2.35;;;25.10;48.90;;;;;;5010274;28;20022;-50
2021/06/17 02:44:38;;;;;;;4.00;2.50;;;25.10;48.90;;;;;;5011216;28;20025;-55
2021/06/17 02:47:05;;;;;;;3.15;2.15;;;25.10;48.90;;;;;;5010654;28;20025;-54
2021/06/17 02:49:31;;;;;;;3.28;2.00;;;25.10;48.90;;;;;;5011248;28;20037;-53
2021/06/17 02:51:57;;;;;;;4.68;2.42;;;25.10;48.90;;;;;;5010095;28;20096;-53
2021/06/17 02:54:22;;;;;;;3.47;2.10;;;25.10;49.00;;;;;;5010961;28;20061;-54
2021/06/17 02:56:53;;;;;;;4.78;1.98;;;25.10;49.00;;;;;;5010948;28;20048;-52
2021/06/17 02:59:48;;;;;;;3.17;2.35;;;25.10;49.10;;;;;;5011250;28;20026;-51
2021/06/17 03:02:21;;;;;;;3.58;2.25;;;25.10;49.00;;;;;;5024509;28;20052;-54
2021/06/17 03:04:54;;;;;;;2.97;2.40;;;25.00;49.00;;;;;;5013580;28;20053;-53
2021/06/17 03:07:32;;;;;;;3.65;2.58;;;25.00;49.00;;;;;;5014304;28;20030;-54
2021/06/17 03:10:07;;;;;;;3.85;2.00;;;25.00;48.80;;;;;;5013480;28;20036;-54
2021/06/17 03:12:34;;;;;;;2.85;1.77;;;25.00;48.90;;;;;;5014324;28;20038;-48
2021/06/17 03:15:06;;;;;;;6.82;2.47;;;25.00;49.10;;;;;;5013336;28;20033;-54
2021/06/17 03:17:40;;;;;;;3.88;2.60;;;24.90;49.10;;;;;;5014088;28;20029;-52
2021/06/17 03:20:08;;;;;;;3.58;2.58;;;24.90;49.00;;;;;;5013116;28;20514;-52
2021/06/17 03:22:36;;;;;;;3.45;2.40;;;24.90;49.10;;;;;;5014158;28;20431;-54
2021/06/17 03:25:14;;;;;;;5.20;2.47;;;24.90;49.10;;;;;;5013028;28;20493;-50
2021/06/17 03:27:41;;;;;;;2.92;2.10;;;24.90;49.10;;;;;;5014502;28;20037;-52
2021/06/17 03:30:07;;;;;;;3.45;2.15;;;24.80;49.00;;;;;;5013168;28;20029;-52
2021/06/17 03:32:36;;;;;;;3.30;2.10;;;24.80;48.80;;;;;;5013434;28;20364;-54
2021/06/17 03:35:02;;;;;;;2.85;2.20;;;24.80;48.90;;;;;;5013276;28;20041;-50
2021/06/17 03:37:29;;;;;;;4.95;2.83;;;24.80;48.90;;;;;;5013907;28;20079;-50
2021/06/17 03:39:58;;;;;;;4.03;2.08;;;24.80;49.00;;;;;;5012617;28;20030;-45
2021/06/17 03:42:24;;;;;;;4.40;2.08;;;24.80;48.90;;;;;;5013608;28;20022;-52
2021/06/17 03:44:52;;;;;;;6.35;2.60;;;24.80;48.90;;;;;;5013758;28;20034;-52
2021/06/17 03:47:20;;;;;;;3.13;2.38;;;24.80;48.80;;;;;;5012857;28;20026;-51
2021/06/17 03:49:48;;;;;;;3.47;2.00;;;24.80;48.70;;;;;;5013367;28;20373;-52
2021/06/17 03:52:16;;;;;;;4.40;2.65;;;24.80;48.60;;;;;;5012384;28;20038;-55
2021/06/17 03:54:44;;;;;;;6.32;2.15;;;24.70;48.60;;;;;;5009412;28;20030;-53
2021/06/17 03:57:10;;;;;;;3.35;2.80;;;24.80;48.70;;;;;;5006361;28;20026;-52
2021/06/17 03:59:41;;;;;;;3.22;2.13;;;24.70;48.70;;;;;;5003134;28;20053;-52
2021/06/17 04:02:07;;;;;;;3.20;2.00;;;24.70;48.80;;;;;;5006349;28;20034;-52
2021/06/17 04:04:33;;;;;;;5.55;2.63;;;24.70;48.90;;;;;;5005558;28;20038;-51
2021/06/17 04:07:04;;;;;;;4.47;2.20;;;24.70;49.00;;;;;;5007422;28;20026;-47
2021/06/17 04:09:32;;;;;;;3.58;1.80;;;24.70;49.10;;;;;;5007039;28;20029;-53
2021/06/17 04:12:01;;;;;;;2.80;2.20;;;24.70;49.20;;;;;;5011203;28;20074;-54
2021/06/17 04:14:29;;;;;;;3.55;2.63;;;24.80;49.20;;;;;;5006427;28;20046;-53
2021/06/17 04:16:56;;;;;;;4.88;2.40;;;24.80;49.30;;;;;;5008816;28;20475;-45
2021/06/17 04:19:24;;;;;;;4.20;2.22;;;24.70;49.20;;;;;;5010963;28;20704;-47
2021/06/17 04:21:52;;;;;;;3.53;2.80;;;24.70;49.20;;;;;;5009425;28;20033;-53
2021/06/17 04:24:23;;;;;;;4.53;2.03;;;24.80;49.40;;;;;;5004564;28;20080;-48
2021/06/17 04:26:51;;;;;;;3.22;2.25;;;24.70;49.30;;;;;;5005861;28;20038;-47
2021/06/17 04:29:19;;;;;;;4.22;2.30;;;24.80;49.20;;;;;;5006785;28;20060;-47
2021/06/17 04:31:45;;;;;;;7.20;2.45;;;24.80;49.30;;;;;;5011537;28;20037;-51
2021/06/17 04:34:11;;;;;;;3.78;2.40;;;24.80;49.30;;;;;;5005222;28;20435;-50
2021/06/17 04:36:38;;;;;;;6.28;2.58;;;24.80;49.40;;;;;;5007870;28;20080;-48
2021/06/17 04:39:05;;;;;;;4.47;2.60;;;24.80;49.40;;;;;;5006909;28;20371;-52
2021/06/17 04:41:31;;;;;;;2.35;1.92;;;24.80;49.70;;;;;;5011272;28;20033;-50
2021/06/17 04:43:59;;;;;;;4.00;1.92;;;24.80;49.70;;;;;;5010451;28;20044;-49
2021/06/17 04:46:25;;;;;;;3.80;2.17;;;24.80;49.80;;;;;;5007916;28;20026;-50
2021/06/17 04:48:52;;;;;;;4.80;2.38;;;24.80;49.90;;;;;;5011003;28;20440;-45
2021/06/17 04:51:19;;;;;;;5.32;2.65;;;24.80;49.90;;;;;;5007157;28;20031;-48
2021/06/17 04:53:45;;;;;;;3.97;2.53;;;24.80;50.00;;;;;;5004951;28;20121;-51
2021/06/17 04:56:10;;;;;;;7.95;3.30;;;24.80;50.10;;;;;;5004058;28;20149;-52
2021/06/17 04:58:36;;;;;;;5.93;2.97;;;24.80;50.10;;;;;;5007516;28;20036;-49
2021/06/17 05:01:05;;;;;;;6.45;2.97;;;24.80;50.00;;;;;;5005293;28;20034;-54
2021/06/17 05:03:32;;;;;;;6.70;2.45;;;24.80;50.10;;;;;;5004235;28;20029;-51
2021/06/17 05:05:59;;;;;;;4.80;2.10;;;24.90;50.10;;;;;;5004585;28;20026;-55
2021/06/17 05:10:58;;;;;;;6.93;3.20;;;24.80;50.30;;;;;;5007116;28;20065;-48
2021/06/17 05:13:27;;;;;;;3.83;2.75;;;24.90;50.30;;;;;;5005470;28;20432;-51
2021/06/17 05:15:54;;;;;;;5.60;3.30;;;24.90;50.40;;;;;;5004519;28;20026;-47
2021/06/17 05:18:22;;;;;;;4.50;3.17;;;24.90;50.40;;;;;;5004930;28;20070;-54
2021/06/17 05:20:47;;;;;;;6.60;3.30;;;24.90;50.80;;;;;;5003606;28;20022;-49
2021/06/17 05:23:16;;;;;;;5.65;2.47;;;24.90;50.80;;;;;;5011188;28;20555;-50
2021/06/17 05:25:42;;;;;;;5.03;2.83;;;25.00;51.10;;;;;;5011921;28;20113;-49
2021/06/17 05:28:11;;;;;;;5.75;2.80;;;25.00;51.10;;;;;;5010717;28;20033;-50
2021/06/17 05:30:37;;;;;;;6.20;2.88;;;25.00;51.20;;;;;;5011980;28;20117;-52
2021/06/17 05:33:03;;;;;;;3.95;2.80;;;25.00;51.30;;;;;;5011384;28;20129;-50
2021/06/17 05:35:28;;;;;;;8.93;3.17;;;25.00;51.30;;;;;;5010369;28;20578;-50
2021/06/17 05:37:55;;;;;;;4.22;3.05;;;25.00;51.30;;;;;;5011123;28;20040;-45
2021/06/17 05:40:20;;;;;;;4.57;2.67;;;25.00;51.30;;;;;;5011414;28;20060;-52
2021/06/17 05:42:46;;;;;;;5.60;2.83;;;25.00;51.30;;;;;;5011524;28;20061;-51
2021/06/17 05:45:12;;;;;;;6.72;3.40;;;25.10;51.40;;;;;;5010880;28;20104;-50
2021/06/17 05:47:38;;;;;;;6.85;3.22;;;25.00;51.40;;;;;;5011596;28;20048;-52
2021/06/17 05:50:05;;;;;;;10.40;3.60;;;25.00;51.90;;;;;;5010621;28;20037;-52
2021/06/17 05:52:31;;;;;;;7.03;3.33;;;25.00;52.10;;;;;;5011098;28;20050;-52
2021/06/17 05:54:56;;;;;;;9.60;3.83;;;25.00;52.40;;;;;;5010664;28;20041;-44
2021/06/17 05:57:22;;;;;;;6.13;3.15;;;25.00;52.60;;;;;;5011158;28;20415;-51
2021/06/17 05:59:48;;;;;;;6.70;2.95;;;25.00;52.20;;;;;;5011626;28;20050;-57
2021/06/17 06:02:14;;;;;;;4.05;2.25;;;25.10;51.70;;;;;;5010889;28;20129;-50
2021/06/17 06:04:39;;;;;;;4.53;2.22;;;25.10;51.60;;;;;;5011609;28;20074;-51
2021/06/17 06:07:05;;;;;;;3.42;2.58;;;25.10;50.90;;;;;;5010180;28;20053;-52
2021/06/17 06:09:31;;;;;;;5.00;2.60;;;25.10;50.60;;;;;;5011109;28;20033;-51
2021/06/17 06:11:56;;;;;;;4.35;2.78;;;25.10;50.60;;;;;;5009916;28;20503;-46
2021/06/17 06:14:22;;;;;;;3.63;2.22;;;25.10;50.10;;;;;;5003728;28;20084;-47
2021/06/17 06:16:50;;;;;;;2.80;1.98;;;25.10;50.20;;;;;;5016637;28;20074;-53
2021/06/17 06:19:16;;;;;;;4.78;2.08;;;25.10;51.00;;;;;;5016043;28;20029;-51
2021/06/17 06:21:43;;;;;;;4.20;2.33;;;25.20;50.50;;;;;;5014873;28;20471;-54
2021/06/17 06:24:09;;;;;;;4.70;2.42;;;25.30;50.60;;;;;;5010746;28;20048;-53
2021/06/17 06:26:35;;;;;;;5.75;2.85;;;25.30;50.50;;;;;;5011648;28;20038;-55
2021/06/17 06:29:00;;;;;;;3.65;2.17;;;25.40;50.40;;;;;;5010298;28;20030;-47
2021/06/17 06:31:26;;;;;;;5.25;2.78;;;25.40;50.30;;;;;;5015863;28;20049;-52
2021/06/17 06:33:51;;;;;;;5.70;1.90;;;25.50;50.50;;;;;;5011177;28;20040;-55
2021/06/17 06:36:17;;;;;;;4.10;2.60;;;25.50;50.30;;;;;;5008726;28;20044;-51
2021/06/17 06:38:43;;;;;;;5.40;2.05;;;25.50;50.40;;;;;;5011031;28;20064;-49
2021/06/17 06:41:08;;;;;;;4.28;2.20;;;25.50;50.30;;;;;;5016743;28;20061;-53
2021/06/17 06:43:34;;;;;;;3.15;1.90;;;25.50;50.50;;;;;;5016281;28;20088;-53
2021/06/17 06:46:00;;;;;;;3.58;2.30;;;25.50;50.50;;;;;;5013923;28;20455;-54
2021/06/17 06:48:27;;;;;;;3.22;2.00;;;25.50;50.70;;;;;;5014754;28;20108;-55
2021/06/17 06:50:52;;;;;;;5.78;3.05;;;25.50;51.00;;;;;;5022085;28;20026;-57
2021/06/17 06:53:18;;;;;;;3.85;2.40;;;25.50;51.00;;;;;;5013769;28;20141;-56
2021/06/17 06:55:44;;;;;;;3.30;2.67;;;25.60;51.00;;;;;;5013834;28;20116;-56
2021/06/17 06:58:12;;;;;;;4.38;2.30;;;25.60;51.00;;;;;;5014142;28;20405;-57
2021/06/17 07:00:40;;;;;;;5.32;2.47;;;25.60;51.00;;;;;;5008658;28;20050;-57
2021/06/17 07:03:06;;;;;;;5.05;2.55;;;25.60;51.00;;;;;;5014479;28;20026;-53
2021/06/17 07:05:32;;;;;;;4.90;2.35;;;25.60;51.00;;;;;;5013395;28;20044;-57
2021/06/17 07:07:57;;;;;;;3.08;2.20;;;25.60;51.00;;;;;;5013082;28;20076;-48
2021/06/17 07:10:23;;;;;;;4.97;2.10;;;25.60;51.00;;;;;;5007650;28;20030;-55
2021/06/17 07:12:49;;;;;;;4.03;2.40;;;25.60;51.10;;;;;;5014557;28;20034;-54
2021/06/17 07:15:14;;;;;;;6.35;2.58;;;25.60;51.10;;;;;;5013175;28;20125;-53
2021/06/17 07:17:40;;;;;;;2.28;2.08;;;25.60;51.20;;;;;;5014274;28;20034;-55
2021/06/17 07:20:06;;;;;;;4.80;3.25;;;25.60;51.20;;;;;;5012890;28;20052;-53
2021/06/17 07:22:32;;;;;;;4.53;2.20;;;25.60;51.30;;;;;;5013835;28;20112;-53
2021/06/17 07:24:58;;;;;;;6.88;2.30;;;25.60;51.40;;;;;;5012991;28;20157;-51
2021/06/17 07:27:24;;;;;;;3.33;1.80;;;25.60;51.30;;;;;;5012938;28;20030;-55
2021/06/17 07:29:52;;;;;;;5.68;2.85;;;25.60;51.30;;;;;;5014113;28;20101;-55
2021/06/17 07:32:18;;;;;;;5.13;2.20;;;25.60;51.30;;;;;;5012945;28;20606;-53
2021/06/17 07:34:46;;;;;;;2.60;2.20;;;25.70;51.50;;;;;;5013913;28;20399;-51
2021/06/17 07:37:12;;;;;;;4.55;2.35;;;25.60;51.40;;;;;;5013043;28;20108;-54
2021/06/17 07:39:38;;;;;;;3.67;2.30;;;25.70;51.40;;;;;;5012980;28;20026;-50
2021/06/17 07:42:04;;;;;;;5.07;2.42;;;25.70;51.50;;;;;;5013149;28;20375;-53
2021/06/17 07:44:30;;;;;;;4.75;2.17;;;25.70;51.70;;;;;;5016826;28;20107;-53
2021/06/17 07:46:56;;;;;;;3.15;2.20;;;25.70;51.70;;;;;;5013034;28;20098;-52
2021/06/17 07:49:22;;;;;;;4.47;2.17;;;25.70;51.70;;;;;;5012507;28;20038;-52
2021/06/17 07:51:48;;;;;;;2.97;2.22;;;25.70;51.80;;;;;;5014510;28;20054;-53
2021/06/17 07:54:18;;;;;;;5.10;2.42;;;25.70;51.80;;;;;;5012044;28;20037;-50
2021/06/17 07:56:44;;;;;;;4.93;2.28;;;25.70;51.90;;;;;;5013375;28;20041;-55
2021/06/17 07:59:10;;;;;;;4.05;2.60;;;25.70;51.90;;;;;;5012861;28;20344;-54
2021/06/17 08:01:35;;;;;;;3.97;2.33;;;25.70;51.90;;;;;;5013334;28;20387;-54
2021/06/17 08:04:06;;;;;;;4.07;2.30;;;25.70;51.80;;;;;;5012246;28;20776;-48
2021/06/17 08:06:32;;;;;;;3.53;2.60;;;25.70;51.80;;;;;;5012165;28;20040;-55
2021/06/17 08:09:00;;;;;;;5.53;3.17;;;25.70;51.90;;;;;;5003180;28;20423;-51
2021/06/17 08:11:26;;;;;;;3.13;1.88;;;25.70;51.90;;;;;;5013124;28;20053;-53
2021/06/17 08:13:51;;;;;;;6.03;2.60;;;25.70;51.90;;;;;;5020592;28;20069;-54
2021/06/17 08:16:17;;;;;;;5.13;2.10;;;25.70;51.90;;;;;;5012452;28;20109;-54
2021/06/17 08:18:42;;;;;;;2.60;2.25;;;25.70;51.90;;;;;;5013000;28;20053;-54
2021/06/17 08:21:08;;;;;;;5.68;1.98;;;25.70;51.90;;;;;;5011828;28;20034;-54
2021/06/17 08:23:34;;;;;;;6.32;2.13;;;25.70;51.90;;;;;;5012631;28;20037;-54
2021/06/17 08:26:00;;;;;;;5.15;2.28;;;25.70;51.90;;;;;;5012616;28;20028;-47
2021/06/17 08:28:26;;;;;;;4.00;2.40;;;25.70;51.90;;;;;;5011765;28;20105;-54
2021/06/17 08:30:53;;;;;;;2.55;2.10;;;25.70;51.90;;;;;;5009583;28;20022;-55
2021/06/17 08:33:19;;;;;;;3.17;2.15;;;25.70;51.90;;;;;;5007204;28;20037;-54
2021/06/17 08:35:44;;;;;;;4.32;2.10;;;25.70;51.90;;;;;;5012080;28;20038;-54
2021/06/17 08:38:10;;;;;;;2.78;2.00;;;25.70;51.90;;;;;;5011458;28;20030;-54
2021/06/17 08:40:36;;;;;;;2.50;1.80;;;25.70;51.90;;;;;;5012300;28;20042;-54
2021/06/17 08:43:04;;;;;;;3.58;1.98;;;25.70;51.90;;;;;;5012113;28;20033;-46
2021/06/17 08:45:30;;;;;;;3.20;2.20;;;25.70;51.90;;;;;;5012049;28;20034;-54
2021/06/17 08:47:55;;;;;;;4.07;2.20;;;25.70;51.90;;;;;;5012421;28;20490;-52
2021/06/17 08:50:22;;;;;;;3.35;2.38;;;25.70;52.00;;;;;;5012185;28;20038;-54
2021/06/17 08:52:48;;;;;;;3.17;2.42;;;25.70;52.00;;;;;;5012769;28;20121;-54
2021/06/17 08:55:19;;;;;;;2.83;2.20;;;25.70;52.00;;;;;;5011893;28;20160;-53
2021/06/17 08:57:47;;;;;;;;;;;25.70;52.00;;;;;;5013247;28;20037;-53
2021/06/17 09:00:15;;;;;;;2.58;2.15;;;25.70;51.90;;;;;;5011569;28;19909;-53
2021/06/17 09:02:41;;;;;;;3.38;2.13;;;25.70;51.90;;;;;;5011406;28;20030;-55
2021/06/17 09:05:16;;;;;;;2.38;1.80;;;25.70;51.90;;;;;;5011079;28;20087;-54
2021/06/17 09:07:43;;;;;;;3.85;2.30;;;25.70;52.00;;;;;;5011715;28;20045;-54
2021/06/17 09:10:09;;;;;;;3.53;2.05;;;25.70;52.00;;;;;;5011340;28;20029;-53
2021/06/17 09:12:55;;;;;;;3.20;2.22;;;25.70;52.00;;;;;;5015750;28;20025;-51
2021/06/17 09:15:39;;;;;;;2.40;1.98;;;25.70;52.00;;;;;;5020983;28;20037;-54
2021/06/17 09:18:27;;;;;;;3.47;2.10;;;25.70;52.00;;;;;;5014551;28;20026;-48
2021/06/17 09:20:58;;;;;;;2.60;1.95;;;25.70;52.00;;;;;;5012265;28;20060;-55
2021/06/17 09:23:27;;;;;;;2.85;2.22;;;25.80;52.10;;;;;;5011516;28;20038;-53
2021/06/17 09:25:57;;;;;;;2.58;1.67;;;25.70;52.00;;;;;;5012437;28;20029;-54
2021/06/17 09:28:24;;;;;;;3.40;2.10;;;25.70;52.00;;;;;;5010842;28;20117;-55
2021/06/17 09:30:50;;;;;;;3.25;2.22;;;25.80;52.10;;;;;;5011934;28;20114;-53
2021/06/17 09:33:16;;;;;;;4.38;2.00;;;25.80;52.10;;;;;;5010101;28;20113;-51
2021/06/17 09:35:50;;;;;;;3.22;2.13;;;25.80;52.10;;;;;;5011210;28;20034;-54
2021/06/17 09:38:16;;;;;;;4.72;1.85;;;25.80;52.10;;;;;;5025735;28;20037;-55
2021/06/17 09:40:46;;;;;;;3.15;2.08;;;25.80;52.10;;;;;;5026158;28;20472;-52
2021/06/17 09:43:12;;;;;;;1.85;1.70;;;25.80;52.10;;;;;;5008179;28;20415;-52
2021/06/17 09:45:38;;;;;;;2.88;1.77;;;25.80;52.10;;;;;;5012018;28;20022;-55
2021/06/17 09:48:04;;;;;;;3.10;2.10;;;25.80;52.10;;;;;;5011779;28;20053;-46
2021/06/17 09:50:30;;;;;;;3.58;2.20;;;25.80;52.10;;;;;;5010524;28;20067;-52
2021/06/17 09:52:56;;;;;;;3.00;2.00;;;25.80;52.10;;;;;;5010774;28;20116;-53
2021/06/17 09:55:42;;;;;;;3.15;1.90;;;25.80;52.20;;;;;;5009935;28;20034;-54
2021/06/17 09:58:29;;;;;;;2.90;1.95;;;25.80;52.10;;;;;;5007403;28;20534;-53
2021/06/17 10:00:56;;;;;;;3.13;1.85;;;25.80;52.10;;;;;;5011254;28;20052;-53
2021/06/17 10:03:21;;;;;;;3.80;2.15;;;25.80;52.10;;;;;;5011063;28;20065;-54
2021/06/17 10:05:47;;;;;;;2.35;2.03;;;25.80;52.10;;;;;;5002570;28;20054;-52
2021/06/17 10:08:13;;;;;;;6.28;2.20;;;25.80;52.30;;;;;;5007686;28;20511;-52
2021/06/17 10:10:39;;;;;;;6.10;2.33;;;25.80;53.00;;;;;;5011656;28;20022;-54
2021/06/17 10:13:06;;;;;;;3.30;1.85;;;25.80;53.00;;;;;;5014748;28;20387;-47
2021/06/17 10:15:32;;;;;;;7.72;2.05;;;25.90;56.40;;;;;;5015058;28;20109;-50
2021/06/17 10:17:58;;;;;;;3.97;2.30;;;25.90;57.30;;;;;;5015305;28;20050;-49
2021/06/17 10:20:24;;;;;;;3.83;2.13;;;25.90;57.60;;;;;;5014063;28;20069;-50
2021/06/17 10:22:55;;;;;;;4.30;2.20;;;25.90;58.30;;;;;;5014922;28;20105;-50
2021/06/17 10:25:28;;;;;;;2.60;1.80;;;25.90;55.80;;;;;;5013108;28;20387;-52
2021/06/17 10:28:02;;;;;;;4.63;2.17;;;25.90;55.60;;;;;;5015004;28;20045;-49
2021/06/17 10:30:49;;;;;;;2.55;1.75;;;25.90;55.30;;;;;;5009156;28;20046;-52
2021/06/17 10:33:34;;;;;;;2.10;1.77;;;25.90;55.30;;;;;;5014191;28;20117;-51
2021/06/17 10:36:23;;;;;;;3.33;2.10;;;25.90;54.90;;;;;;5046060;28;20030;-54
2021/06/17 10:39:10;;;;;;;2.63;1.98;;;25.90;54.70;;;;;;5014882;28;20041;-53
2021/06/17 10:41:59;;;;;;;3.10;2.15;;;25.90;54.60;;;;;;5014892;28;20024;-53
2021/06/17 10:44:48;;;;;;;2.85;1.80;;;25.90;54.60;;;;;;5009361;28;20096;-50
2021/06/17 10:47:38;;;;;;;2.22;1.88;;;25.90;54.50;;;;;;5013964;28;20026;-53
2021/06/17 10:50:08;;;;;;;1.95;1.40;;;25.90;54.40;;;;;;5014230;28;20069;-51
2021/06/17 10:52:34;;;;;;;3.58;1.88;;;25.90;54.50;;;;;;5013983;28;20072;-54
2021/06/17 10:55:05;;;;;;;2.58;2.00;;;25.90;54.30;;;;;;5013999;28;20037;-53
2021/06/17 10:57:46;;;;;;;2.67;2.22;;;25.90;54.30;;;;;;5012938;28;20542;-52
2021/06/17 11:00:38;;;;;;;;;;;25.90;54.30;;;;;;5013911;28;20050;-52
2021/06/17 11:03:04;;;;;;;2.92;1.75;;;25.90;54.20;;;;;;5012713;28;19909;-51
2021/06/17 11:05:33;;;;;;;2.88;2.17;;;25.90;54.20;;;;;;5013515;28;20129;-53
2021/06/17 11:10:47;;;;;;;2.63;1.83;;;25.90;54.10;;;;;;5014099;28;20042;-54
2021/06/17 11:13:28;;;;;;;1.95;1.67;;;25.90;54.10;;;;;;5011078;28;20033;-53
2021/06/17 11:15:54;;;;;;;1.98;1.70;;;25.90;54.10;;;;;;5014291;28;20051;-48
2021/06/17 11:18:43;;;;;;;3.05;2.10;;;25.90;54.10;;;;;;5012083;28;20080;-54
2021/06/17 11:21:24;;;;;;;2.80;1.70;;;25.90;54.10;;;;;;5013128;28;20048;-45
2021/06/17 11:23:56;;;;;;;2.28;1.90;;;25.90;54.00;;;;;;5005184;28;20044;-52
2021/06/17 11:26:45;;;;;;;3.15;2.08;;;25.90;54.00;;;;;;5014655;28;20114;-51
2021/06/17 11:29:19;;;;;;;2.70;1.67;;;25.90;54.00;;;;;;5014257;28;20045;-46
2021/06/17 11:31:53;;;;;;;1.67;1.27;;;25.90;54.00;;;;;;5014521;28;20109;-53
2021/06/17 11:34:31;;;;;;;2.45;1.83;;;25.90;54.00;;;;;;5012659;28;20034;-51
2021/06/17 11:36:59;;;;;;;2.92;1.83;;;25.90;53.90;;;;;;5046009;28;20108;-53
2021/06/17 11:39:26;;;;;;;3.85;1.83;;;25.90;53.90;;;;;;5007429;28;20524;-54
2021/06/17 11:41:54;;;;;;;2.45;1.70;;;25.90;53.90;;;;;;4994416;28;20369;-51
2021/06/17 11:44:23;;;;;;;2.42;1.70;;;25.90;53.90;;;;;;5027750;28;20360;-51
2021/06/17 11:46:51;;;;;;;3.03;1.90;;;25.90;53.80;;;;;;5033861;28;20028;-53
2021/06/17 11:49:18;;;;;;;2.25;1.90;;;25.90;53.80;;;;;;5032984;28;20021;-52
2021/06/17 11:51:46;;;;;;;2.78;1.70;;;25.90;53.80;;;;;;5019570;28;20085;-50
2021/06/17 11:54:26;;;;;;;3.65;2.00;;;25.90;53.80;;;;;;5013408;28;20041;-45
2021/06/17 11:57:00;;;;;;;2.55;1.70;;;25.90;53.70;;;;;;5014073;28;20029;-50
2021/06/17 11:59:28;;;;;;;2.22;1.60;;;25.90;53.70;;;;;;5012940;28;20060;-51
2021/06/17 12:02:05;;;;;;;1.90;1.73;;;25.90;53.70;;;;;;5013791;28;20041;-50
2021/06/17 12:04:59;;;;;;;2.22;1.67;;;25.90;53.70;;;;;;5012394;28;20467;-50
2021/06/17 12:07:47;;;;;;;2.28;1.77;;;26.00;53.70;;;;;;5013191;28;20366;-52
2021/06/17 12:10:19;;;;;;;1.50;1.40;;;26.00;53.70;;;;;;5013162;28;20079;-49
2021/06/17 12:12:50;;;;;;;1.80;1.52;;;26.00;53.70;;;;;;5018338;28;20025;-51
2021/06/17 12:15:25;;;;;;;2.00;1.50;;;25.90;53.60;;;;;;5021689;28;20202;-50
2021/06/17 12:17:53;;;;;;;2.15;1.58;;;25.90;53.60;;;;;;5045433;28;20732;-54
2021/06/17 12:20:32;;;;;;;2.75;1.73;;;25.90;53.60;;;;;;5013100;28;20029;-51
2021/06/17 12:22:59;;;;;;;1.80;1.60;;;26.00;53.60;;;;;;5013383;28;20113;-53
2021/06/17 12:25:46;;;;;;;2.17;1.88;;;26.00;53.60;;;;;;5012386;28;20455;-49
2021/06/17 12:28:14;;;;;;;2.00;1.80;;;26.00;53.60;;;;;;4993017;28;20472;-47
2021/06/17 12:30:45;;;;;;;1.50;1.38;;;26.00;54.30;;;;;;4993715;28;20042;-54
2021/06/17 12:33:26;;;;;;;2.00;1.80;;;26.00;53.60;;;;;;4993267;28;20499;-46
2021/06/17 12:35:56;;;;;;;1.60;1.50;;;26.00;53.60;;;;;;4992865;28;20034;-53
2021/06/17 12:38:28;;;;;;;2.38;1.85;;;26.00;53.50;;;;;;4999290;28;20072;-52
2021/06/17 12:41:16;;;;;;;2.05;1.65;;;26.00;53.50;;;;;;5013213;28;20025;-51
2021/06/17 12:43:46;;;;;;;2.03;1.70;;;26.00;53.50;;;;;;5015293;28;20410;-52
2021/06/17 12:46:14;;;;;;;2.40;1.80;;;26.00;53.50;;;;;;5032138;28;20059;-44
2021/06/17 12:54:00;;;;;;;4.32;2.05;;;26.00;53.50;;;;;;5009090;28;20092;-50
2021/06/17 12:56:26;;;;;;;1.70;1.60;;;26.00;53.50;;;;;;5012162;28;20077;-50
2021/06/17 12:58:53;;;;;;;3.67;1.83;;;26.00;53.50;;;;;;5012764;28;20061;-52
2021/06/17 13:01:23;;;;;;;2.17;1.95;;;26.00;53.50;;;;;;5011793;28;20478;-55
2021/06/17 13:03:50;;;;;;;2.17;1.98;;;26.00;53.40;;;;;;5013116;28;20022;-54
2021/06/17 13:06:37;;;;;;;4.80;2.17;;;26.00;53.40;;;;;;5012064;28;20038;-47
2021/06/17 13:09:05;;;;;;;1.85;1.67;;;25.90;53.40;;;;;;4993222;28;20041;-50